• Join FlightAware (Why Join?)
  • Login
  • US Flag 
07:58PM EDT


 

Airport Tracker/Info


-or-


 

Live Flight TrackerFlight Track Log ✈ LYM613 ✈ 22-Jul-2013 ✈ KRKS - KAPA

Flight Track Log - Related Links

Times and Time Zones

All times are in EDT time to prevent confusion due to time zone crossing. See the LYM613 flight status page for this flight to view local times or setup timezone preferences in your user account.

Time Position Orientation Groundspeed Altitude Reporting Facility
EDT Latitude Longitude Course Direction KTS MPH feet Rate Location/Type
01:20PM 41.5103 -108.9231 112° Southeast 294 338 12,800  Level Salt Lake Center
01:21PM 41.4614 -108.7911 116° Southeast 352 405 15,100 2,160 Climbing Salt Lake Center
01:22PM 41.4211 -108.6711 114° Southeast 366 421 17,300 1,800 Climbing Salt Lake Center
01:23PM 41.3836 -108.5492 112° Southeast 371 427 18,900 1,800 Climbing Salt Lake Center
01:24PM 41.3479 -108.5202 121° Southeast  Level Estimated
01:24PM 41.3397 -108.4044 112° Southeast 376 433 21,100  Level Salt Lake Center
01:25PM 41.3000 -108.2797 113° Southeast 382 440 22,700 1,680 Climbing Salt Lake Center
01:26PM 41.2539 -108.1342 113° Southeast 383 441 24,600 1,740 Climbing Salt Lake Center
01:27PM 41.2139 -108.0075 113° Southeast 388 447 26,300 1,740 Climbing Salt Lake Center
01:28PM 41.1669 -107.8625 113° Southeast 384 442 28,200 1,620 Climbing Salt Lake Center
01:29PM 41.1281 -107.7408 113° Southeast 377 434 29,700 1,260 Climbing Salt Lake Center
01:30PM 41.0803 -107.5928 113° Southeast 389 448 30,900 600 Climbing Salt Lake Center
01:31PM 41.0369 -107.4594 113° Southeast 408 470 31,000  Climbing Salt Lake Center
01:32PM 40.9833 -107.2939 113° Southeast 434 499 31,000  Level Salt Lake Center
01:33PM 40.9372 -107.1533 113° Southeast 437 503 31,000  Level Salt Lake Center
01:34PM 40.8750 -106.9642 113° Southeast 437 503 31,000  Level Denver Center
01:35PM 40.8289 -106.8247 114° Southeast 435 501 31,000  Level Denver Center
01:36PM 40.7744 -106.6614 114° Southeast 435 501 31,000  Level Denver Center
01:37PM 40.7214 -106.5042 114° Southeast 433 498 31,000  Level Denver Center
01:38PM 40.6756 -106.3633 113° Southeast 435 501 31,000  Level Denver Center
01:40PM 40.6269 -106.2214 114° Southeast 442 509 31,000 -780 Level Denver Center
01:41PM 40.5703 -106.0569 114° Southeast 432 497 29,500 -1,800 Descending Denver Center
01:42PM 40.5144 -105.8917 114° Southeast 413 475 26,900 -2,160 Descending Denver Center
01:44PM 40.4347 -105.6860 123° Southeast  Level FlightAware Approximate
01:45PM 40.3667 -105.4833 123° Southeast 390 449 20,400  Level Denver TRACON
01:46PM 40.3167 -105.4167 135° Southeast 364 419 19,900 -1,200 Descending Denver TRACON
01:47PM 40.2333 -105.3833 163° South 358 412 18,300 -1,740 Descending Denver TRACON
01:48PM 40.1333 -105.3500 166° South 344 396 16,500 -2,100 Descending Denver TRACON
01:49PM 40.0333 -105.2833 153° Southeast 336 387 13,900 -2,340 Descending Denver TRACON
01:50PM 39.9667 -105.2500 159° South 339 390 11,900 -1,560 Descending Denver TRACON
01:51PM 39.8833 -105.2000 155° Southeast 317 365 11,000 -840 Descending Denver TRACON
01:52PM 39.7833 -105.1500 159° South 305 351 10,100 -480 Descending Denver TRACON
01:53PM 39.7167 -105.1167 159° South 307 353 10,000 -60 Descending Denver TRACON
01:54PM 39.6333 -105.0667 155° Southeast 311 358 10,000 -240 Level Denver TRACON
01:54PM 39.5947 -105.0544 166° South 312 359 9,700 -600 Descending Denver Center
01:55PM 39.5456 -104.9806 131° Southeast 279 321 9,100 -1,140 Descending Denver Center
01:56PM 39.5258 -104.9014 108° East 223 257 7,400 -1,380 Descending Denver Center
01:57PM 39.5383 -104.8519 72° East 150 173 6,300 -780 Descending Denver Center
01:58PM 39.5697 -104.8514 North 113 130 5,800 -540 Descending Denver Center
02:00PM 39.5701 -104.8493 90° East  Level Estimated
02:07PM 39.5701 -104.8493 90° East  Level Estimated
02:08PM 39.5701 -104.8493 90° East  Level Estimated